Time;durP1;ratioP1;P1;durP2;ratioP2;P2;SDS_P1;SDS_P2;PMS_P1;PMS_P2;Temp;Humidity;BMP_temperature;BMP_pressure;BME280_temperature;BME280_humidity;BME280_pressure;Samples;Min_cycle;Max_cycle;Signal;HPM_P1;HPM_P2
2022/08/22 00:01:14;;;;;;;19.08;8.90;;;;;;;;;;4260708;33;20096;-67
2022/08/22 00:03:43;;;;;;;16.73;9.15;;;;;;;;;;4260147;33;20112;-67
2022/08/22 00:34:47;;;;;;;17.87;9.95;;;;;;;;;;4765344;28;20500;-61
2022/08/22 00:37:16;;;;;;;14.50;9.45;;;;;;;;;;4237131;33;20120;-61
2022/08/22 00:40:20;;;;;;;23.30;10.00;;;;;;;;;;4233799;33;20080;-61
2022/08/22 00:43:20;;;;;;;26.30;10.20;;;;;;;;;;4219860;34;20109;-66
2022/08/22 00:46:04;;;;;;;17.48;9.65;;;;;;;;;;4227950;33;20228;-66
2022/08/22 00:48:58;;;;;;;18.62;9.63;;;;;;;;;;4219762;33;20600;-62
2022/08/22 00:51:39;;;;;;;20.77;9.80;;;;;;;;;;4219697;34;20191;-61
2022/08/22 00:54:20;;;;;;;15.90;9.45;;;;;;;;;;4223662;33;20101;-61
2022/08/22 00:56:55;;;;;;;17.77;9.18;;;;;;;;;;4219688;33;20213;-60
2022/08/22 00:59:55;;;;;;;26.45;9.63;;;;;;;;;;4219703;33;20670;-61
2022/08/22 01:02:31;;;;;;;18.17;9.40;;;;;;;;;;4219628;33;20536;-66
2022/08/22 01:05:16;;;;;;;25.15;11.57;;;;;;;;;;4227922;33;20113;-66
2022/08/22 01:08:08;;;;;;;20.27;10.93;;;;;;;;;;4220412;33;20189;-66
2022/08/22 01:10:55;;;;;;;19.02;11.52;;;;;;;;;;4223946;33;20134;-66
2022/08/22 01:13:38;;;;;;;24.90;10.55;;;;;;;;;;4233687;33;20122;-67
2022/08/22 01:16:32;;;;;;;17.80;10.55;;;;;;;;;;4232331;33;20132;-61
2022/08/22 01:19:22;;;;;;;23.00;11.18;;;;;;;;;;4233693;33;20271;-61
2022/08/22 01:22:43;;;;;;;18.23;11.23;;;;;;;;;;4232066;33;20529;-60
2022/08/22 01:25:28;;;;;;;20.12;11.55;;;;;;;;;;4216658;33;20129;-61
2022/08/22 01:28:32;;;;;;;18.67;12.10;;;;;;;;;;4233447;33;20128;-61
2022/08/22 01:31:06;;;;;;;19.23;11.32;;;;;;;;;;4233597;33;20116;-60
2022/08/22 01:33:43;;;;;;;20.67;11.52;;;;;;;;;;4232324;33;20133;-60
2022/08/22 01:36:09;;;;;;;20.20;11.00;;;;;;;;;;4234760;33;20418;-60
2022/08/22 01:38:50;;;;;;;22.95;11.82;;;;;;;;;;4260653;33;20219;-61
2022/08/22 01:41:39;;;;;;;21.85;12.40;;;;;;;;;;4261503;33;20510;-61
2022/08/22 01:44:26;;;;;;;22.23;12.73;;;;;;;;;;4261766;33;20120;-61
2022/08/22 01:47:06;;;;;;;22.42;11.70;;;;;;;;;;4261441;33;20108;-61
2022/08/22 01:49:32;;;;;;;20.45;12.93;;;;;;;;;;4248551;33;20108;-61
2022/08/22 01:52:07;;;;;;;22.75;11.98;;;;;;;;;;4260059;33;20123;-60
2022/08/22 01:54:48;;;;;;;27.33;12.60;;;;;;;;;;4248336;33;20120;-60
2022/08/22 01:57:14;;;;;;;29.10;13.05;;;;;;;;;;4261360;33;20330;-61
2022/08/22 01:59:43;;;;;;;22.48;12.95;;;;;;;;;;4261278;33;20218;-60
2022/08/22 02:02:37;;;;;;;33.88;18.70;;;;;;;;;;4248136;33;20505;-61
2022/08/22 02:05:21;;;;;;;24.70;12.77;;;;;;;;;;4261313;33;20118;-61
2022/08/22 02:08:01;;;;;;;23.55;11.93;;;;;;;;;;4259722;33;20592;-61
2022/08/22 02:10:42;;;;;;;18.65;11.50;;;;;;;;;;4257491;33;20115;-61
2022/08/22 02:13:13;;;;;;;20.05;12.90;;;;;;;;;;4247334;33;20117;-61
2022/08/22 02:15:39;;;;;;;19.87;12.40;;;;;;;;;;4247252;33;20112;-60
2022/08/22 02:18:05;;;;;;;23.50;12.23;;;;;;;;;;4242297;33;20112;-61
2022/08/22 02:20:46;;;;;;;17.62;12.05;;;;;;;;;;4235650;33;20113;-61
2022/08/22 02:23:51;;;;;;;21.35;12.20;;;;;;;;;;4231734;33;20120;-61
2022/08/22 02:26:21;;;;;;;24.80;13.50;;;;;;;;;;4231591;33;20428;-61
2022/08/22 02:28:50;;;;;;;19.33;11.45;;;;;;;;;;4231537;33;20129;-62
2022/08/22 02:31:24;;;;;;;19.87;12.07;;;;;;;;;;4233101;33;20092;-61
2022/08/22 02:33:57;;;;;;;23.00;12.93;;;;;;;;;;4219766;33;20469;-61
2022/08/22 02:36:42;;;;;;;28.35;13.25;;;;;;;;;;4234754;33;20204;-62
2022/08/22 02:39:26;;;;;;;17.42;12.43;;;;;;;;;;4247879;33;20104;-61
2022/08/22 02:42:00;;;;;;;22.87;11.80;;;;;;;;;;4261254;33;20097;-59
2022/08/22 02:44:29;;;;;;;25.90;13.85;;;;;;;;;;4247947;33;20219;-59
2022/08/22 02:47:08;;;;;;;17.75;13.55;;;;;;;;;;4260878;33;20199;-62
2022/08/22 02:49:40;;;;;;;26.95;13.10;;;;;;;;;;4247681;33;20136;-61
2022/08/22 02:52:18;;;;;;;277.02;33.92;;;;;;;;;;4260897;33;20527;-61
2022/08/22 02:55:05;;;;;;;139.18;20.77;;;;;;;;;;4261203;33;20112;-62
2022/08/22 02:57:58;;;;;;;30.35;13.15;;;;;;;;;;4247964;33;20104;-61
2022/08/22 03:00:27;;;;;;;349.55;38.05;;;;;;;;;;4247722;33;20212;-61
2022/08/22 03:03:16;;;;;;;21.50;13.93;;;;;;;;;;4260941;33;20095;-61
2022/08/22 03:05:42;;;;;;;29.87;12.98;;;;;;;;;;4247782;33;20308;-61
2022/08/22 03:08:39;;;;;;;23.87;13.15;;;;;;;;;;4260952;33;20144;-61
2022/08/22 03:11:14;;;;;;;25.12;12.75;;;;;;;;;;4260650;33;20527;-61
2022/08/22 03:14:06;;;;;;;19.77;11.77;;;;;;;;;;4260703;33;20120;-61
2022/08/22 03:16:32;;;;;;;25.85;12.90;;;;;;;;;;4260726;33;20523;-61
2022/08/22 03:19:29;;;;;;;22.58;12.20;;;;;;;;;;4260877;33;20128;-61
2022/08/22 03:22:00;;;;;;;24.55;12.40;;;;;;;;;;4247531;33;20520;-62
2022/08/22 03:24:34;;;;;;;21.67;12.13;;;;;;;;;;4247517;33;20203;-61
2022/08/22 03:27:19;;;;;;;19.40;13.82;;;;;;;;;;4247457;33;20116;-62
2022/08/22 03:29:50;;;;;;;38.63;13.30;;;;;;;;;;4247413;33;20108;-62
2022/08/22 03:32:21;;;;;;;32.65;13.32;;;;;;;;;;4229894;33;20128;-61
2022/08/22 03:35:19;;;;;;;22.70;12.20;;;;;;;;;;4232575;33;20225;-62
2022/08/22 03:37:45;;;;;;;30.85;13.02;;;;;;;;;;4236605;33;20461;-62
2022/08/22 03:40:26;;;;;;;27.52;13.38;;;;;;;;;;4238828;33;20124;-61
2022/08/22 03:43:23;;;;;;;30.98;14.45;;;;;;;;;;4231887;33;20188;-61
2022/08/22 03:46:18;;;;;;;29.55;13.85;;;;;;;;;;4239276;33;20104;-61
2022/08/22 03:49:03;;;;;;;24.42;13.73;;;;;;;;;;4220582;33;20520;-62
2022/08/22 03:51:52;;;;;;;21.10;11.57;;;;;;;;;;4233039;33;20116;-63
2022/08/22 03:54:33;;;;;;;23.12;11.52;;;;;;;;;;4217651;33;20195;-63
2022/08/22 03:57:17;;;;;;;23.58;11.93;;;;;;;;;;4219274;33;20104;-64
2022/08/22 04:00:05;;;;;;;19.02;11.25;;;;;;;;;;4231999;33;20101;-64
2022/08/22 04:02:49;;;;;;;17.42;8.98;;;;;;;;;;4219142;33;20116;-64
2022/08/22 04:05:27;;;;;;;19.87;12.10;;;;;;;;;;4231983;33;20193;-64
2022/08/22 04:07:53;;;;;;;16.90;9.70;;;;;;;;;;4240496;33;20111;-63
2022/08/22 04:10:19;;;;;;;19.00;11.15;;;;;;;;;;4230804;33;20121;-61
2022/08/22 04:12:50;;;;;;;20.12;11.30;;;;;;;;;;4235117;33;20105;-61
2022/08/22 04:15:33;;;;;;;16.67;8.52;;;;;;;;;;4219121;33;20196;-62
2022/08/22 04:18:48;;;;;;;17.17;9.18;;;;;;;;;;4218771;33;20113;-59
2022/08/22 04:21:15;;;;;;;20.35;9.98;;;;;;;;;;4193683;33;20174;-59
2022/08/22 04:23:52;;;;;;;20.52;10.95;;;;;;;;;;4231578;33;20125;-59
2022/08/22 04:26:43;;;;;;;17.33;9.48;;;;;;;;;;4232197;33;20139;-59
2022/08/22 04:29:17;;;;;;;21.90;11.20;;;;;;;;;;4218855;33;20116;-60
2022/08/22 04:31:50;;;;;;;19.58;11.48;;;;;;;;;;4218838;33;20093;-57
2022/08/22 04:34:24;;;;;;;26.27;10.55;;;;;;;;;;4218663;33;20140;-60
2022/08/22 04:37:03;;;;;;;21.70;11.82;;;;;;;;;;4226189;33;20589;-58
2022/08/22 04:39:31;;;;;;;20.67;11.48;;;;;;;;;;4246692;33;20129;-59
2022/08/22 04:42:06;;;;;;;18.45;11.00;;;;;;;;;;4258490;33;20127;-60
2022/08/22 04:44:35;;;;;;;;;;;;;;;;;;4247100;33;20150;-62
2022/08/22 04:47:07;;;;;;;21.12;11.32;;;;;;;;;;4260043;33;20018;-61
2022/08/22 04:49:36;;;;;;;17.85;11.70;;;;;;;;;;4246452;33;20214;-61
2022/08/22 04:52:11;;;;;;;18.02;11.07;;;;;;;;;;4259686;33;20208;-61
2022/08/22 04:55:16;;;;;;;15.57;11.50;;;;;;;;;;4259896;33;20118;-60
2022/08/22 04:57:50;;;;;;;13.48;9.57;;;;;;;;;;4246401;33;20195;-62
2022/08/22 05:00:16;;;;;;;15.63;10.68;;;;;;;;;;4247480;33;20128;-62
2022/08/22 05:02:48;;;;;;;20.23;11.68;;;;;;;;;;4261829;33;20551;-62
2022/08/22 05:05:20;;;;;;;17.75;9.50;;;;;;;;;;4261787;33;20112;-59
2022/08/22 05:07:53;;;;;;;14.35;9.57;;;;;;;;;;4261789;33;20234;-61
2022/08/22 05:10:35;;;;;;;22.90;10.43;;;;;;;;;;4262161;33;20108;-61
2022/08/22 05:13:05;;;;;;;14.32;9.55;;;;;;;;;;4262067;33;20111;-60
2022/08/22 05:15:42;;;;;;;27.83;9.77;;;;;;;;;;4237172;33;20528;-62
2022/08/22 05:18:12;;;;;;;15.02;8.73;;;;;;;;;;4237261;33;20183;-62
2022/08/22 05:20:39;;;;;;;14.40;9.70;;;;;;;;;;4261811;33;20501;-59
2022/08/22 05:23:32;;;;;;;17.62;9.82;;;;;;;;;;4248858;33;20119;-61
2022/08/22 05:26:00;;;;;;;19.02;10.90;;;;;;;;;;4251487;33;20208;-61
2022/08/22 05:28:32;;;;;;;20.00;11.45;;;;;;;;;;4261646;33;20441;-61
2022/08/22 05:30:58;;;;;;;14.27;9.38;;;;;;;;;;4261841;33;20622;-60
2022/08/22 05:33:27;;;;;;;17.70;10.20;;;;;;;;;;4261533;33;20539;-61
2022/08/22 05:35:58;;;;;;;19.27;9.82;;;;;;;;;;4260193;33;20196;-60
2022/08/22 05:38:30;;;;;;;24.52;12.30;;;;;;;;;;4248326;33;20137;-61
2022/08/22 05:41:02;;;;;;;23.05;10.82;;;;;;;;;;4260154;33;20190;-61
2022/08/22 05:43:28;;;;;;;13.38;7.45;;;;;;;;;;4248389;33;20120;-62
2022/08/22 05:45:56;;;;;;;12.80;8.48;;;;;;;;;;4248797;33;20108;-62
2022/08/22 05:48:32;;;;;;;17.52;9.30;;;;;;;;;;4248337;33;20088;-62
2022/08/22 05:51:17;;;;;;;13.93;9.15;;;;;;;;;;4261624;33;20088;-60
2022/08/22 05:53:57;;;;;;;10.35;6.72;;;;;;;;;;4248539;33;20205;-60
2022/08/22 05:56:37;;;;;;;15.88;8.20;;;;;;;;;;4261213;33;20103;-61
2022/08/22 05:59:28;;;;;;;13.70;9.00;;;;;;;;;;4248416;33;20112;-62
2022/08/22 06:02:04;;;;;;;11.07;7.65;;;;;;;;;;4261121;33;20155;-61
2022/08/22 06:04:33;;;;;;;10.48;7.15;;;;;;;;;;4261261;33;20531;-61
2022/08/22 06:07:08;;;;;;;9.05;6.72;;;;;;;;;;4261545;33;20126;-60
2022/08/22 06:09:46;;;;;;;13.32;5.97;;;;;;;;;;4261534;33;20111;-59
2022/08/22 06:12:21;;;;;;;14.43;6.62;;;;;;;;;;4261009;33;20131;-60
2022/08/22 06:14:52;;;;;;;11.02;6.87;;;;;;;;;;4261560;33;20119;-60
2022/08/22 06:17:23;;;;;;;10.35;5.60;;;;;;;;;;4261318;33;20110;-60
2022/08/22 06:19:50;;;;;;;10.75;6.53;;;;;;;;;;4261117;33;20108;-59
2022/08/22 06:22:28;;;;;;;12.57;4.30;;;;;;;;;;4248103;33;20207;-59
2022/08/22 06:25:00;;;;;;;5.47;4.25;;;;;;;;;;4247949;33;20096;-59
2022/08/22 06:27:27;;;;;;;7.72;5.12;;;;;;;;;;4248207;33;20123;-59
2022/08/22 06:29:59;;;;;;;8.15;5.07;;;;;;;;;;4261018;33;20096;-60
2022/08/22 06:32:37;;;;;;;11.00;5.37;;;;;;;;;;4248329;33;20127;-59
2022/08/22 06:35:11;;;;;;;8.73;5.95;;;;;;;;;;4247964;33;20115;-61
2022/08/22 06:37:39;;;;;;;7.32;4.30;;;;;;;;;;4247883;33;20460;-59
2022/08/22 06:40:07;;;;;;;11.15;4.95;;;;;;;;;;4248198;33;20571;-59
2022/08/22 06:42:38;;;;;;;12.20;5.50;;;;;;;;;;4248041;33;20116;-59
2022/08/22 06:45:10;;;;;;;8.68;6.18;;;;;;;;;;4236008;33;20140;-58
2022/08/22 06:47:49;;;;;;;3.20;2.65;;;;;;;;;;4247961;33;20120;-57
2022/08/22 06:50:30;;;;;;;8.82;6.12;;;;;;;;;;4260752;33;20131;-58
2022/08/22 06:53:00;;;;;;;5.22;3.70;;;;;;;;;;4247875;33;20108;-58
2022/08/22 06:55:27;;;;;;;14.13;5.70;;;;;;;;;;4248147;33;20112;-58
2022/08/22 06:57:56;;;;;;;11.60;5.35;;;;;;;;;;4260853;33;20539;-57
2022/08/22 07:00:23;;;;;;;3.90;3.05;;;;;;;;;;4261257;33;20134;-59
2022/08/22 07:03:15;;;;;;;3.83;2.55;;;;;;;;;;4236093;33;20112;-58
2022/08/22 07:05:42;;;;;;;6.05;3.35;;;;;;;;;;4260497;33;20127;-58
2022/08/22 07:08:11;;;;;;;7.43;5.20;;;;;;;;;;4247926;33;20097;-60
2022/08/22 07:10:43;;;;;;;7.22;4.62;;;;;;;;;;4247533;33;20475;-59
2022/08/22 07:13:14;;;;;;;10.48;5.20;;;;;;;;;;4248054;33;20112;-59
2022/08/22 07:15:41;;;;;;;6.78;4.87;;;;;;;;;;4228794;33;20109;-58
2022/08/22 07:18:16;;;;;;;16.60;4.90;;;;;;;;;;4244856;33;20556;-58
2022/08/22 07:20:48;;;;;;;5.50;3.47;;;;;;;;;;4219453;33;20180;-58
2022/08/22 07:23:39;;;;;;;8.75;4.28;;;;;;;;;;4238953;33;20108;-59
2022/08/22 07:26:38;;;;;;;7.75;4.32;;;;;;;;;;4246469;33;20418;-58
2022/08/22 07:29:12;;;;;;;6.97;3.70;;;;;;;;;;4246267;33;20434;-57
2022/08/22 07:31:43;;;;;;;1.92;1.73;;;;;;;;;;4241364;33;20117;-56
2022/08/22 07:34:15;;;;;;;6.32;3.95;;;;;;;;;;4219012;33;20204;-58
2022/08/22 07:36:55;;;;;;;1.33;1.30;;;;;;;;;;4232275;33;20128;-58
2022/08/22 07:39:23;;;;;;;4.05;2.40;;;;;;;;;;4219203;33;20116;-59
2022/08/22 07:42:11;;;;;;;12.07;4.68;;;;;;;;;;4219264;33;20433;-59
2022/08/22 07:44:59;;;;;;;8.50;4.85;;;;;;;;;;4219053;33;20112;-57
2022/08/22 07:47:56;;;;;;;11.90;6.45;;;;;;;;;;4232550;33;20117;-59
2022/08/22 07:50:26;;;;;;;11.12;5.20;;;;;;;;;;4210072;33;20125;-59
2022/08/22 07:52:55;;;;;;;8.02;5.68;;;;;;;;;;4230917;33;20121;-59
2022/08/22 07:55:23;;;;;;;6.68;4.60;;;;;;;;;;4219039;33;20465;-60
2022/08/22 07:57:55;;;;;;;4.53;3.62;;;;;;;;;;4219102;33;20138;-59
2022/08/22 08:00:22;;;;;;;6.25;5.20;;;;;;;;;;4219139;33;20509;-59
2022/08/22 08:02:53;;;;;;;6.53;4.60;;;;;;;;;;4219177;33;20215;-59
2022/08/22 08:05:22;;;;;;;8.77;4.90;;;;;;;;;;4219063;33;20126;-60
2022/08/22 08:07:51;;;;;;;7.97;6.07;;;;;;;;;;4219131;33;20531;-60
2022/08/22 08:10:34;;;;;;;8.15;5.55;;;;;;;;;;4231994;33;20521;-60
2022/08/22 08:13:04;;;;;;;11.10;5.80;;;;;;;;;;4230654;33;20125;-59
2022/08/22 08:15:32;;;;;;;8.20;5.47;;;;;;;;;;4236923;33;20100;-60
2022/08/22 08:18:05;;;;;;;7.28;4.32;;;;;;;;;;4260421;33;20441;-59
2022/08/22 08:20:34;;;;;;;11.70;6.45;;;;;;;;;;4246768;33;20120;-59
2022/08/22 08:23:00;;;;;;;7.87;6.28;;;;;;;;;;4247288;33;20096;-59
2022/08/22 08:25:29;;;;;;;5.10;3.95;;;;;;;;;;4259934;33;20100;-60
2022/08/22 08:30:45;;;;;;;7.55;5.28;;;;;;;;;;4248743;33;20123;-59
2022/08/22 08:33:16;;;;;;;7.03;4.95;;;;;;;;;;4259992;33;20114;-61
2022/08/22 08:35:46;;;;;;;9.82;5.43;;;;;;;;;;4247814;33;20527;-60
2022/08/22 08:38:19;;;;;;;7.10;5.35;;;;;;;;;;4231601;33;20548;-59
2022/08/22 08:41:10;;;;;;;9.75;7.18;;;;;;;;;;4223147;33;20285;-60
2022/08/22 08:43:57;;;;;;;9.40;4.90;;;;;;;;;;4247858;33;20200;-61
2022/08/22 08:46:38;;;;;;;6.07;4.10;;;;;;;;;;4240048;33;20124;-59
2022/08/22 08:49:13;;;;;;;2.08;1.98;;;;;;;;;;4232174;33;20113;-58
2022/08/22 08:52:06;;;;;;;3.58;2.12;;;;;;;;;;4244637;33;20135;-60
2022/08/22 08:54:35;;;;;;;9.48;7.00;;;;;;;;;;4223431;33;20130;-59
2022/08/22 08:57:33;;;;;;;8.05;4.80;;;;;;;;;;4230680;33;20649;-59
2022/08/22 09:00:02;;;;;;;2.53;2.33;;;;;;;;;;4217514;33;20203;-60
2022/08/22 09:02:45;;;;;;;3.25;2.60;;;;;;;;;;4235041;33;20132;-60
2022/08/22 09:05:49;;;;;;;11.40;5.43;;;;;;;;;;4231599;33;20311;-60
2022/08/22 09:08:29;;;;;;;8.50;6.20;;;;;;;;;;4244548;33;20120;-60
2022/08/22 09:11:08;;;;;;;4.47;2.97;;;;;;;;;;4244695;33;20127;-60
2022/08/22 09:13:46;;;;;;;9.52;5.62;;;;;;;;;;4231521;33;20207;-61
2022/08/22 09:16:21;;;;;;;7.20;5.00;;;;;;;;;;4234395;33;20107;-61
2022/08/22 09:18:52;;;;;;;;;;;;;;;;;;4234555;33;20116;-59
2022/08/22 09:21:28;;;;;;;8.05;5.55;;;;;;;;;;4233778;33;20000;-57
2022/08/22 09:24:09;;;;;;;9.40;5.15;;;;;;;;;;4220637;33;20112;-59
2022/08/22 09:26:47;;;;;;;5.75;3.05;;;;;;;;;;4220389;33;20188;-59
2022/08/22 09:29:38;;;;;;;7.07;4.37;;;;;;;;;;4233405;33;20751;-59
2022/08/22 09:32:41;;;;;;;8.48;5.82;;;;;;;;;;4233666;33;20129;-59
2022/08/22 09:35:44;;;;;;;18.50;6.28;;;;;;;;;;4233275;33;20173;-59
2022/08/22 09:38:25;;;;;;;10.88;6.07;;;;;;;;;;4233602;33;20129;-59
2022/08/22 09:41:12;;;;;;;7.78;5.80;;;;;;;;;;4233538;33;20104;-60
2022/08/22 09:43:54;;;;;;;7.72;5.47;;;;;;;;;;4220370;33;20113;-59
2022/08/22 09:46:26;;;;;;;10.10;5.95;;;;;;;;;;4246783;33;20097;-60
2022/08/22 09:49:03;;;;;;;6.80;5.97;;;;;;;;;;4248109;33;20472;-59
2022/08/22 09:51:59;;;;;;;6.72;5.25;;;;;;;;;;4248334;33;20131;-59
2022/08/22 09:54:38;;;;;;;8.90;5.93;;;;;;;;;;4248293;33;20216;-59
2022/08/22 09:57:10;;;;;;;8.23;6.25;;;;;;;;;;4261494;33;20188;-59
2022/08/22 09:59:54;;;;;;;12.15;6.22;;;;;;;;;;4261293;33;20128;-59
2022/08/22 10:02:27;;;;;;;12.73;5.03;;;;;;;;;;4254370;33;20109;-59
2022/08/22 10:05:11;;;;;;;9.13;5.40;;;;;;;;;;4240455;33;20345;-59
2022/08/22 10:07:57;;;;;;;9.45;6.05;;;;;;;;;;4247295;33;20191;-61
2022/08/22 10:10:29;;;;;;;10.57;6.35;;;;;;;;;;4222106;33;20115;-60
2022/08/22 10:13:30;;;;;;;8.55;5.70;;;;;;;;;;4247207;33;20501;-60
2022/08/22 10:16:39;;;;;;;8.18;6.00;;;;;;;;;;4216333;33;20133;-61
2022/08/22 10:19:25;;;;;;;10.85;5.05;;;;;;;;;;4239421;33;20124;-61
2022/08/22 10:22:18;;;;;;;7.45;5.43;;;;;;;;;;4233199;33;20128;-60
2022/08/22 10:24:47;;;;;;;7.85;5.07;;;;;;;;;;4233032;33;20113;-60
2022/08/22 10:27:19;;;;;;;9.63;5.40;;;;;;;;;;4232904;33;20100;-59
2022/08/22 10:30:16;;;;;;;11.35;5.57;;;;;;;;;;4233009;33;20474;-59
2022/08/22 10:33:08;;;;;;;11.70;5.40;;;;;;;;;;4220177;33;20119;-59
2022/08/22 10:35:43;;;;;;;9.13;5.53;;;;;;;;;;4200931;33;20139;-60
2022/08/22 10:38:25;;;;;;;6.68;5.00;;;;;;;;;;4232910;33;20129;-64
2022/08/22 10:40:55;;;;;;;9.93;5.55;;;;;;;;;;4231376;33;20204;-65
2022/08/22 10:43:39;;;;;;;7.68;5.47;;;;;;;;;;4233061;33;20097;-65
2022/08/22 10:46:37;;;;;;;8.10;5.25;;;;;;;;;;4237024;33;20112;-64
2022/08/22 10:49:11;;;;;;;8.25;5.18;;;;;;;;;;4228464;33;20108;-63
2022/08/22 10:51:53;;;;;;;9.63;5.10;;;;;;;;;;4235990;33;20438;-64
2022/08/22 10:54:45;;;;;;;7.95;5.40;;;;;;;;;;4247926;33;20113;-64
2022/08/22 10:57:27;;;;;;;13.50;5.70;;;;;;;;;;4247649;33;20512;-64
2022/08/22 11:00:07;;;;;;;8.32;5.45;;;;;;;;;;4260682;33;20634;-65
2022/08/22 11:02:33;;;;;;;7.00;5.20;;;;;;;;;;4260895;33;20540;-64
2022/08/22 11:05:12;;;;;;;8.98;4.78;;;;;;;;;;4261054;33;20103;-64
2022/08/22 11:07:41;;;;;;;8.63;5.03;;;;;;;;;;4260964;33;20124;-63
2022/08/22 11:10:18;;;;;;;6.53;4.60;;;;;;;;;;4247490;33;20188;-64
2022/08/22 11:12:55;;;;;;;7.25;5.18;;;;;;;;;;4260815;33;20115;-64
2022/08/22 11:15:51;;;;;;;9.80;4.72;;;;;;;;;;4247947;33;20100;-64
2022/08/22 11:18:25;;;;;;;7.43;5.15;;;;;;;;;;4260794;33;20211;-62
2022/08/22 11:21:00;;;;;;;9.60;4.47;;;;;;;;;;4260807;33;20117;-62
2022/08/22 11:23:32;;;;;;;4.55;2.72;;;;;;;;;;4247698;33;20173;-63
2022/08/22 11:26:33;;;;;;;10.40;5.50;;;;;;;;;;4260312;33;20106;-63
2022/08/22 11:29:09;;;;;;;8.77;5.55;;;;;;;;;;4231675;33;20129;-64
2022/08/22 11:31:42;;;;;;;9.20;4.68;;;;;;;;;;4256468;33;20127;-64
2022/08/22 11:34:20;;;;;;;7.30;4.30;;;;;;;;;;4256079;33;20111;-65
2022/08/22 11:36:56;;;;;;;7.50;4.82;;;;;;;;;;4242786;33;20124;-64
2022/08/22 11:39:34;;;;;;;10.60;4.50;;;;;;;;;;4256300;33;20563;-64
2022/08/22 11:42:12;;;;;;;6.12;4.82;;;;;;;;;;4244309;33;20123;-64
2022/08/22 11:44:48;;;;;;;9.50;5.47;;;;;;;;;;4247449;33;20216;-64
2022/08/22 11:47:19;;;;;;;7.03;4.87;;;;;;;;;;4238918;33;20125;-64
2022/08/22 11:49:58;;;;;;;5.60;4.47;;;;;;;;;;4246230;33;20089;-64
2022/08/22 11:52:37;;;;;;;8.57;5.12;;;;;;;;;;4256615;33;20105;-64
2022/08/22 11:55:27;;;;;;;7.97;4.53;;;;;;;;;;4246669;33;20112;-63
2022/08/22 11:58:19;;;;;;;8.07;5.03;;;;;;;;;;4233395;33;20088;-63
2022/08/22 12:01:01;;;;;;;11.88;4.97;;;;;;;;;;4256533;33;20121;-64
2022/08/22 12:03:47;;;;;;;7.65;5.00;;;;;;;;;;4244695;33;20499;-64
2022/08/22 12:06:15;;;;;;;10.18;4.78;;;;;;;;;;4256699;33;20153;-64
2022/08/22 12:09:04;;;;;;;13.00;4.82;;;;;;;;;;4246256;33;20172;-64
2022/08/22 12:12:10;;;;;;;8.93;4.78;;;;;;;;;;4238910;33;20200;-63
2022/08/22 12:14:41;;;;;;;;;;;;;;;;;;4216962;33;20200;-64
2022/08/22 12:17:13;;;;;;;9.23;5.35;;;;;;;;;;4256553;33;19996;-65
2022/08/22 12:20:06;;;;;;;9.27;4.93;;;;;;;;;;4256448;33;20124;-62
2022/08/22 12:22:35;;;;;;;6.57;4.28;;;;;;;;;;4256327;33;20104;-64
2022/08/22 12:25:33;;;;;;;8.23;4.85;;;;;;;;;;4245873;33;20127;-63
2022/08/22 12:28:29;;;;;;;9.45;5.30;;;;;;;;;;4256295;33;20109;-62
2022/08/22 12:30:55;;;;;;;;;;;;;;;;;;4256546;33;20127;-64
2022/08/22 12:33:39;;;;;;;6.45;4.80;;;;;;;;;;4246021;33;19975;-62
2022/08/22 12:36:05;;;;;;;11.43;5.63;;;;;;;;;;4245965;33;20127;-62
2022/08/22 12:38:34;;;;;;;11.73;4.90;;;;;;;;;;4245824;33;20609;-62
2022/08/22 12:41:27;;;;;;;7.62;5.00;;;;;;;;;;4252482;33;20127;-63
2022/08/22 12:44:11;;;;;;;5.03;4.00;;;;;;;;;;4241661;33;20146;-64
2022/08/22 12:46:52;;;;;;;10.23;4.65;;;;;;;;;;4246669;33;20113;-65
2022/08/22 12:49:43;;;;;;;7.82;4.45;;;;;;;;;;4243352;33;20179;-63
2022/08/22 12:52:25;;;;;;;8.68;5.00;;;;;;;;;;4259881;33;20206;-63
2022/08/22 12:55:22;;;;;;;10.48;4.90;;;;;;;;;;4246903;33;20206;-63
2022/08/22 12:58:01;;;;;;;8.02;5.35;;;;;;;;;;4259881;33;20093;-62
2022/08/22 13:00:33;;;;;;;8.38;4.32;;;;;;;;;;4260057;33;20089;-65
2022/08/22 13:03:25;;;;;;;6.43;4.70;;;;;;;;;;4246236;33;20124;-63
2022/08/22 13:05:52;;;;;;;14.63;5.03;;;;;;;;;;4258985;33;20112;-61
2022/08/22 13:08:29;;;;;;;8.10;6.00;;;;;;;;;;4246369;33;20115;-62
2022/08/22 13:11:00;;;;;;;6.70;5.40;;;;;;;;;;4234943;33;20084;-62
2022/08/22 13:13:42;;;;;;;6.15;4.93;;;;;;;;;;4246380;33;20516;-62
2022/08/22 13:16:11;;;;;;;9.30;5.47;;;;;;;;;;4246445;33;20203;-64
2022/08/22 13:18:47;;;;;;;7.62;5.43;;;;;;;;;;4259378;33;20457;-62
2022/08/22 13:21:16;;;;;;;8.48;5.20;;;;;;;;;;4260289;33;20093;-62
2022/08/22 13:23:51;;;;;;;11.38;6.15;;;;;;;;;;4248685;33;20096;-62
2022/08/22 13:26:28;;;;;;;8.80;5.90;;;;;;;;;;4248753;33;20092;-62
2022/08/22 13:29:05;;;;;;;10.13;5.78;;;;;;;;;;4261781;33;20207;-62
2022/08/22 13:31:34;;;;;;;13.05;5.25;;;;;;;;;;4248621;33;20124;-62
2022/08/22 13:34:09;;;;;;;7.35;4.97;;;;;;;;;;4261573;33;20088;-63
2022/08/22 13:36:48;;;;;;;9.95;5.28;;;;;;;;;;4261485;33;20112;-63
2022/08/22 13:39:13;;;;;;;9.75;5.28;;;;;;;;;;4261650;33;20535;-63
2022/08/22 13:41:48;;;;;;;8.60;5.68;;;;;;;;;;4261753;33;20108;-62
2022/08/22 13:44:30;;;;;;;8.88;5.35;;;;;;;;;;4227175;33;20180;-63
2022/08/22 13:47:08;;;;;;;19.05;6.70;;;;;;;;;;4240383;33;20489;-62
2022/08/22 13:49:46;;;;;;;13.32;5.43;;;;;;;;;;4228153;33;20109;-63
2022/08/22 13:52:29;;;;;;;9.35;5.28;;;;;;;;;;4238214;33;20129;-63
2022/08/22 13:54:58;;;;;;;8.27;5.32;;;;;;;;;;4239485;33;20129;-64
2022/08/22 13:57:33;;;;;;;12.32;5.05;;;;;;;;;;4247242;33;20213;-65
2022/08/22 14:00:08;;;;;;;8.77;4.97;;;;;;;;;;4245855;33;20590;-64
2022/08/22 14:03:00;;;;;;;5.75;4.62;;;;;;;;;;4247214;33;20101;-64
2022/08/22 14:05:43;;;;;;;6.20;4.65;;;;;;;;;;4245719;33;20139;-63
2022/08/22 14:08:16;;;;;;;6.15;5.03;;;;;;;;;;4233867;33;20516;-62
2022/08/22 14:11:18;;;;;;;9.77;5.07;;;;;;;;;;4246991;33;20120;-63
2022/08/22 14:13:48;;;;;;;8.50;4.80;;;;;;;;;;4230139;33;20132;-63
2022/08/22 14:16:25;;;;;;;6.37;4.95;;;;;;;;;;4245919;33;20132;-63
2022/08/22 14:18:54;;;;;;;10.90;5.43;;;;;;;;;;4244523;33;20112;-64
2022/08/22 14:21:26;;;;;;;10.13;5.75;;;;;;;;;;4208039;33;20114;-63
2022/08/22 14:24:01;;;;;;;6.20;5.22;;;;;;;;;;4222431;33;20105;-58
2022/08/22 14:26:31;;;;;;;8.15;4.87;;;;;;;;;;4246328;33;20216;-58
2022/08/22 14:29:00;;;;;;;15.65;5.28;;;;;;;;;;4222166;33;20141;-57
2022/08/22 14:31:27;;;;;;;6.72;5.12;;;;;;;;;;4222942;33;20112;-58
2022/08/22 14:34:00;;;;;;;7.95;5.37;;;;;;;;;;4210571;33;20100;-58
2022/08/22 14:36:35;;;;;;;6.95;4.65;;;;;;;;;;4234798;33;20548;-57
2022/08/22 14:39:19;;;;;;;9.48;4.60;;;;;;;;;;4222820;33;20108;-63
2022/08/22 14:42:04;;;;;;;9.68;5.35;;;;;;;;;;4234547;33;20196;-64
2022/08/22 14:44:37;;;;;;;6.60;4.90;;;;;;;;;;4233915;33;20243;-64
2022/08/22 14:47:06;;;;;;;10.85;4.65;;;;;;;;;;4230181;33;20085;-63
2022/08/22 14:49:59;;;;;;;7.60;4.97;;;;;;;;;;4201373;33;20212;-64
2022/08/22 14:52:39;;;;;;;8.55;4.30;;;;;;;;;;4222226;33;20124;-65
2022/08/22 14:55:07;;;;;;;7.78;5.50;;;;;;;;;;4234025;33;20536;-65
2022/08/22 14:57:35;;;;;;;11.63;6.68;;;;;;;;;;4246652;33;20207;-65
2022/08/22 15:00:09;;;;;;;10.82;5.45;;;;;;;;;;4232175;33;20133;-65
2022/08/22 15:02:36;;;;;;;15.32;5.53;;;;;;;;;;4245711;33;20107;-64
2022/08/22 15:05:14;;;;;;;13.77;5.70;;;;;;;;;;4246884;33;20125;-65
2022/08/22 15:07:40;;;;;;;10.00;5.72;;;;;;;;;;4243452;33;20108;-66
2022/08/22 15:10:28;;;;;;;7.25;5.40;;;;;;;;;;4232272;33;20481;-68
2022/08/22 15:12:57;;;;;;;10.40;5.32;;;;;;;;;;4217485;33;20118;-65
2022/08/22 15:15:32;;;;;;;9.93;6.18;;;;;;;;;;4217495;33;20625;-67
2022/08/22 15:17:58;;;;;;;;;;;;;;;;;;4230636;33;20533;-66
2022/08/22 15:20:29;;;;;;;11.93;5.57;;;;;;;;;;4217010;33;20409;-67
2022/08/22 15:23:19;;;;;;;9.77;5.87;;;;;;;;;;4227298;33;20123;-67
2022/08/22 15:25:45;;;;;;;9.52;6.43;;;;;;;;;;4240539;33;20108;-66
2022/08/22 15:28:11;;;;;;;13.57;6.80;;;;;;;;;;4237533;33;20108;-64
2022/08/22 15:30:48;;;;;;;12.77;7.12;;;;;;;;;;4246496;33;20101;-67
2022/08/22 15:33:20;;;;;;;10.20;7.47;;;;;;;;;;4236701;33;20125;-67
2022/08/22 15:35:46;;;;;;;12.60;8.85;;;;;;;;;;4238337;33;20112;-66
2022/08/22 15:38:32;;;;;;;17.40;8.52;;;;;;;;;;4238475;33;20101;-65
2022/08/22 15:41:32;;;;;;;19.60;8.93;;;;;;;;;;4232857;33;20456;-65
2022/08/22 15:44:19;;;;;;;16.85;9.57;;;;;;;;;;4231256;33;20132;-66
2022/08/22 15:47:07;;;;;;;20.80;9.20;;;;;;;;;;4218241;33;20509;-65
2022/08/22 15:49:48;;;;;;;14.87;8.13;;;;;;;;;;4219552;33;20547;-66
2022/08/22 15:52:27;;;;;;;20.10;6.65;;;;;;;;;;4232510;33;20204;-66
2022/08/22 15:54:53;;;;;;;14.35;7.00;;;;;;;;;;4219209;33;20100;-66
2022/08/22 15:57:39;;;;;;;11.90;6.82;;;;;;;;;;4232240;33;20220;-67
2022/08/22 16:00:42;;;;;;;16.08;8.60;;;;;;;;;;4218623;33;20465;-65
2022/08/22 16:03:09;;;;;;;19.65;8.45;;;;;;;;;;4149642;34;20160;-66
2022/08/22 16:05:54;;;;;;;16.95;9.93;;;;;;;;;;4194556;33;20120;-63
2022/08/22 16:08:28;;;;;;;22.50;9.82;;;;;;;;;;4219108;33;20097;-65
2022/08/22 16:11:13;;;;;;;22.52;10.75;;;;;;;;;;4223806;33;20113;-66